sensor_id;sensor_type;location;lat;lon;timestamp;pressure;altitude;pressure_sealevel;temperature;humidity
15193;BME280;7697;51.630;7.484;2023-03-15T00:02:35;100392.88;;;4.50;86.95
15193;BME280;7697;51.630;7.484;2023-03-15T00:07:36;100379.78;;;4.10;88.41
15193;BME280;7697;51.630;7.484;2023-03-15T00:12:38;100371.22;;;3.84;89.89
15193;BME280;7697;51.630;7.484;2023-03-15T00:17:43;100369.22;;;3.77;90.76
15193;BME280;7697;51.630;7.484;2023-03-15T00:22:45;100365.28;;;3.73;91.49
15193;BME280;7697;51.630;7.484;2023-03-15T00:27:47;100372.19;;;3.83;91.80
15193;BME280;7697;51.630;7.484;2023-03-15T00:32:52;100363.50;;;3.82;92.08
15193;BME280;7697;51.630;7.484;2023-03-15T00:37:55;100356.63;;;3.73;92.51
15193;BME280;7697;51.630;7.484;2023-03-15T00:42:57;100385.63;;;3.88;92.92
15193;BME280;7697;51.630;7.484;2023-03-15T00:48:00;100395.13;;;3.89;93.35
15193;BME280;7697;51.630;7.484;2023-03-15T00:53:02;100400.34;;;3.89;93.84
15193;BME280;7697;51.630;7.484;2023-03-15T00:58:04;100397.88;;;3.87;93.72
15193;BME280;7697;51.630;7.484;2023-03-15T01:03:07;100394.59;;;3.77;95.19
15193;BME280;7697;51.630;7.484;2023-03-15T01:08:09;100381.97;;;3.64;94.89
15193;BME280;7697;51.630;7.484;2023-03-15T01:13:10;100382.78;;;3.65;95.76
15193;BME280;7697;51.630;7.484;2023-03-15T01:18:13;100389.19;;;3.78;96.02
15193;BME280;7697;51.630;7.484;2023-03-15T01:23:15;100380.84;;;3.75;95.60
15193;BME280;7697;51.630;7.484;2023-03-15T01:28:17;100380.66;;;3.68;96.32
15193;BME280;7697;51.630;7.484;2023-03-15T01:33:21;100391.78;;;3.70;97.19
15193;BME280;7697;51.630;7.484;2023-03-15T01:38:23;100379.00;;;3.67;97.84
15193;BME280;7697;51.630;7.484;2023-03-15T01:43:26;100387.06;;;3.74;97.55
15193;BME280;7697;51.630;7.484;2023-03-15T01:48:33;100377.41;;;3.74;97.53
15193;BME280;7697;51.630;7.484;2023-03-15T01:53:36;100394.13;;;3.82;97.75
15193;BME280;7697;51.630;7.484;2023-03-15T01:58:39;100407.38;;;3.88;98.43
15193;BME280;7697;51.630;7.484;2023-03-15T02:03:47;100408.22;;;3.89;98.31
15193;BME280;7697;51.630;7.484;2023-03-15T02:08:55;100408.84;;;3.83;98.70
15193;BME280;7697;51.630;7.484;2023-03-15T02:13:59;100426.56;;;3.97;99.82
15193;BME280;7697;51.630;7.484;2023-03-15T02:19:05;100411.81;;;3.96;99.33
15193;BME280;7697;51.630;7.484;2023-03-15T02:24:18;100411.81;;;3.96;99.48
15193;BME280;7697;51.630;7.484;2023-03-15T02:29:26;100431.19;;;4.11;99.84
15193;BME280;7697;51.630;7.484;2023-03-15T02:34:29;100426.59;;;4.13;100.00
15193;BME280;7697;51.630;7.484;2023-03-15T02:39:31;100424.94;;;4.12;100.00
15193;BME280;7697;51.630;7.484;2023-03-15T02:44:36;100435.78;;;4.09;100.00
15193;BME280;7697;51.630;7.484;2023-03-15T02:49:40;100436.44;;;4.11;100.00
15193;BME280;7697;51.630;7.484;2023-03-15T02:54:43;100437.72;;;4.07;100.00
15193;BME280;7697;51.630;7.484;2023-03-15T02:59:46;100457.22;;;4.12;100.00
15193;BME280;7697;51.630;7.484;2023-03-15T03:04:50;100464.91;;;4.14;100.00
15193;BME280;7697;51.630;7.484;2023-03-15T03:09:52;100451.13;;;4.04;100.00
15193;BME280;7697;51.630;7.484;2023-03-15T03:14:55;100468.03;;;4.09;100.00
15193;BME280;7697;51.630;7.484;2023-03-15T03:19:57;100486.84;;;4.13;100.00
15193;BME280;7697;51.630;7.484;2023-03-15T03:24:59;100503.09;;;4.17;100.00
15193;BME280;7697;51.630;7.484;2023-03-15T03:30:04;100494.38;;;4.08;100.00
15193;BME280;7697;51.630;7.484;2023-03-15T03:35:07;100525.53;;;4.19;100.00
15193;BME280;7697;51.630;7.484;2023-03-15T03:40:11;100520.28;;;4.11;100.00
15193;BME280;7697;51.630;7.484;2023-03-15T03:45:14;100523.66;;;4.03;100.00
15193;BME280;7697;51.630;7.484;2023-03-15T03:50:16;100522.22;;;4.01;100.00
15193;BME280;7697;51.630;7.484;2023-03-15T03:55:18;100546.78;;;4.08;100.00
15193;BME280;7697;51.630;7.484;2023-03-15T04:00:25;100553.69;;;4.09;100.00
15193;BME280;7697;51.630;7.484;2023-03-15T04:05:27;100564.16;;;4.09;100.00
15193;BME280;7697;51.630;7.484;2023-03-15T04:10:29;100566.06;;;3.99;100.00
15193;BME280;7697;51.630;7.484;2023-03-15T04:15:35;100570.63;;;3.97;100.00
15193;BME280;7697;51.630;7.484;2023-03-15T04:20:37;100576.56;;;3.99;100.00
15193;BME280;7697;51.630;7.484;2023-03-15T04:25:47;100574.03;;;3.89;100.00
15193;BME280;7697;51.630;7.484;2023-03-15T04:30:50;100574.16;;;3.80;100.00
15193;BME280;7697;51.630;7.484;2023-03-15T04:35:57;100578.72;;;3.77;100.00
15193;BME280;7697;51.630;7.484;2023-03-15T04:41:02;100590.16;;;3.76;100.00
15193;BME280;7697;51.630;7.484;2023-03-15T04:46:11;100605.38;;;3.73;100.00
15193;BME280;7697;51.630;7.484;2023-03-15T04:51:13;100596.97;;;3.61;100.00
15193;BME280;7697;51.630;7.484;2023-03-15T04:56:15;100620.78;;;3.76;100.00
15193;BME280;7697;51.630;7.484;2023-03-15T05:01:18;100617.28;;;3.67;100.00
15193;BME280;7697;51.630;7.484;2023-03-15T05:06:20;100629.78;;;3.73;100.00
15193;BME280;7697;51.630;7.484;2023-03-15T05:11:22;100635.69;;;3.75;100.00
15193;BME280;7697;51.630;7.484;2023-03-15T05:16:25;100630.13;;;3.78;100.00
15193;BME280;7697;51.630;7.484;2023-03-15T05:21:27;100626.84;;;3.76;100.00
15193;BME280;7697;51.630;7.484;2023-03-15T05:26:28;100637.97;;;3.78;100.00
15193;BME280;7697;51.630;7.484;2023-03-15T05:31:31;100642.88;;;3.73;100.00
15193;BME280;7697;51.630;7.484;2023-03-15T05:36:36;100661.94;;;3.84;100.00
15193;BME280;7697;51.630;7.484;2023-03-15T05:41:38;100669.13;;;3.82;100.00
15193;BME280;7697;51.630;7.484;2023-03-15T05:46:41;100670.63;;;3.84;100.00
15193;BME280;7697;51.630;7.484;2023-03-15T05:51:43;100694.53;;;3.89;100.00
15193;BME280;7697;51.630;7.484;2023-03-15T05:56:44;100700.53;;;3.82;100.00
15193;BME280;7697;51.630;7.484;2023-03-15T06:01:47;100716.47;;;3.88;100.00
15193;BME280;7697;51.630;7.484;2023-03-15T06:06:49;100720.19;;;3.86;100.00
15193;BME280;7697;51.630;7.484;2023-03-15T06:11:51;100745.81;;;3.92;100.00
15193;BME280;7697;51.630;7.484;2023-03-15T06:16:55;100751.03;;;3.92;100.00
15193;BME280;7697;51.630;7.484;2023-03-15T06:21:57;100753.00;;;3.90;100.00
15193;BME280;7697;51.630;7.484;2023-03-15T06:26:58;100751.41;;;3.79;100.00
15193;BME280;7697;51.630;7.484;2023-03-15T06:32:02;100771.69;;;3.95;100.00
15193;BME280;7697;51.630;7.484;2023-03-15T06:37:03;100765.78;;;3.93;100.00
15193;BME280;7697;51.630;7.484;2023-03-15T06:42:06;100783.31;;;3.92;100.00
15193;BME280;7697;51.630;7.484;2023-03-15T06:47:10;100774.56;;;3.84;100.00
15193;BME280;7697;51.630;7.484;2023-03-15T06:52:12;100805.72;;;3.95;100.00
15193;BME280;7697;51.630;7.484;2023-03-15T06:57:14;100796.00;;;3.87;100.00
15193;BME280;7697;51.630;7.484;2023-03-15T07:02:17;100802.00;;;3.97;100.00
15193;BME280;7697;51.630;7.484;2023-03-15T07:07:19;100818.41;;;3.99;100.00
15193;BME280;7697;51.630;7.484;2023-03-15T07:12:21;100814.19;;;4.06;100.00
15193;BME280;7697;51.630;7.484;2023-03-15T07:17:24;100831.41;;;4.27;99.77
15193;BME280;7697;51.630;7.484;2023-03-15T07:22:26;100837.59;;;4.43;100.00
15193;BME280;7697;51.630;7.484;2023-03-15T07:27:28;100834.78;;;4.63;100.00
15193;BME280;7697;51.630;7.484;2023-03-15T07:32:31;100835.50;;;4.73;99.96
15193;BME280;7697;51.630;7.484;2023-03-15T07:37:33;100849.78;;;4.78;99.48
15193;BME280;7697;51.630;7.484;2023-03-15T07:42:35;100849.19;;;4.93;99.04
15193;BME280;7697;51.630;7.484;2023-03-15T07:47:38;100860.28;;;5.12;98.48
15193;BME280;7697;51.630;7.484;2023-03-15T07:52:40;100873.47;;;5.28;97.36
15193;BME280;7697;51.630;7.484;2023-03-15T07:57:42;100871.66;;;5.21;96.04
15193;BME280;7697;51.630;7.484;2023-03-15T08:02:45;100889.81;;;5.48;95.98
15193;BME280;7697;51.630;7.484;2023-03-15T08:07:47;100902.06;;;5.74;95.14
15193;BME280;7697;51.630;7.484;2023-03-15T08:12:50;100919.63;;;5.73;94.13
15193;BME280;7697;51.630;7.484;2023-03-15T08:17:53;100941.78;;;6.05;93.91
15193;BME280;7697;51.630;7.484;2023-03-15T08:22:55;100947.69;;;6.07;92.39
15193;BME280;7697;51.630;7.484;2023-03-15T08:27:56;100954.91;;;6.05;92.04
15193;BME280;7697;51.630;7.484;2023-03-15T08:32:59;100955.94;;;6.28;91.90
15193;BME280;7697;51.630;7.484;2023-03-15T08:38:01;100965.84;;;6.50;92.05
15193;BME280;7697;51.630;7.484;2023-03-15T08:43:03;100980.00;;;6.73;89.45
15193;BME280;7697;51.630;7.484;2023-03-15T08:48:07;100994.81;;;6.66;89.12
15193;BME280;7697;51.630;7.484;2023-03-15T08:53:09;100989.38;;;6.76;89.17
15193;BME280;7697;51.630;7.484;2023-03-15T08:58:11;100991.19;;;7.00;88.92
15193;BME280;7697;51.630;7.484;2023-03-15T09:03:15;101015.84;;;6.66;87.53
15193;BME280;7697;51.630;7.484;2023-03-15T09:08:16;101015.81;;;6.42;87.57
15193;BME280;7697;51.630;7.484;2023-03-15T09:13:20;101019.97;;;6.53;87.46
15193;BME280;7697;51.630;7.484;2023-03-15T09:18:24;101008.31;;;6.80;86.95
15193;BME280;7697;51.630;7.484;2023-03-15T09:23:26;101020.94;;;7.41;86.97
15193;BME280;7697;51.630;7.484;2023-03-15T09:28:27;101020.31;;;7.86;85.42
15193;BME280;7697;51.630;7.484;2023-03-15T09:33:31;101023.84;;;8.09;82.77
15193;BME280;7697;51.630;7.484;2023-03-15T09:38:33;101038.94;;;8.23;82.38
15193;BME280;7697;51.630;7.484;2023-03-15T09:44:02;101039.53;;;8.42;81.96
15193;BME280;7697;51.630;7.484;2023-03-15T09:49:12;101049.69;;;8.53;80.88
15193;BME280;7697;51.630;7.484;2023-03-15T09:54:17;101037.75;;;9.11;80.34
15193;BME280;7697;51.630;7.484;2023-03-15T09:59:22;101050.34;;;9.23;78.23
15193;BME280;7697;51.630;7.484;2023-03-15T10:04:31;101033.66;;;8.85;80.02
15193;BME280;7697;51.630;7.484;2023-03-15T10:09:36;101043.88;;;9.26;80.37
15193;BME280;7697;51.630;7.484;2023-03-15T10:14:56;101050.41;;;9.97;78.30
15193;BME280;7697;51.630;7.484;2023-03-15T10:20:05;101064.34;;;9.61;76.34
15193;BME280;7697;51.630;7.484;2023-03-15T10:25:13;101059.47;;;9.21;77.82
15193;BME280;7697;51.630;7.484;2023-03-15T10:30:18;101059.88;;;9.47;77.61
15193;BME280;7697;51.630;7.484;2023-03-15T10:35:22;101050.84;;;9.41;75.98
15193;BME280;7697;51.630;7.484;2023-03-15T10:40:41;101056.31;;;9.02;74.94
15193;BME280;7697;51.630;7.484;2023-03-15T10:45:46;101048.50;;;9.76;73.28
15193;BME280;7697;51.630;7.484;2023-03-15T10:50:50;101058.72;;;10.23;71.21
15193;BME280;7697;51.630;7.484;2023-03-15T10:56:00;101073.97;;;10.72;66.95
15193;BME280;7697;51.630;7.484;2023-03-15T11:01:04;101074.50;;;10.02;67.26
15193;BME280;7697;51.630;7.484;2023-03-15T11:06:19;101076.44;;;9.41;68.61
15193;BME280;7697;51.630;7.484;2023-03-15T11:11:22;101069.47;;;9.48;69.54
15193;BME280;7697;51.630;7.484;2023-03-15T11:16:24;101071.88;;;9.35;69.42
15193;BME280;7697;51.630;7.484;2023-03-15T11:21:30;101080.47;;;9.52;70.74
15193;BME280;7697;51.630;7.484;2023-03-15T11:26:35;101076.09;;;9.59;70.29
15193;BME280;7697;51.630;7.484;2023-03-15T11:31:37;101084.97;;;10.39;68.49
15193;BME280;7697;51.630;7.484;2023-03-15T11:36:43;101079.25;;;11.14;64.57
15193;BME280;7697;51.630;7.484;2023-03-15T11:41:49;101087.63;;;11.67;63.17
15193;BME280;7697;51.630;7.484;2023-03-15T11:46:54;101085.81;;;11.68;55.16
15193;BME280;7697;51.630;7.484;2023-03-15T11:51:59;101101.13;;;11.93;55.60
15193;BME280;7697;51.630;7.484;2023-03-15T11:57:03;101097.69;;;12.47;58.16
15193;BME280;7697;51.630;7.484;2023-03-15T12:02:35;101099.16;;;12.56;57.05
15193;BME280;7697;51.630;7.484;2023-03-15T12:07:59;101108.84;;;12.70;54.18
15193;BME280;7697;51.630;7.484;2023-03-15T12:13:21;101098.28;;;13.03;53.71
15193;BME280;7697;51.630;7.484;2023-03-15T12:18:39;101093.47;;;12.66;53.79
15193;BME280;7697;51.630;7.484;2023-03-15T12:23:47;101095.19;;;13.06;53.71
15193;BME280;7697;51.630;7.484;2023-03-15T12:28:52;101088.72;;;13.29;53.99
15193;BME280;7697;51.630;7.484;2023-03-15T12:34:03;101093.31;;;14.06;52.52
15193;BME280;7697;51.630;7.484;2023-03-15T12:39:21;101086.59;;;13.90;50.18
15193;BME280;7697;51.630;7.484;2023-03-15T12:44:39;101085.59;;;13.78;52.02
15193;BME280;7697;51.630;7.484;2023-03-15T12:49:42;101073.81;;;14.18;48.86
15193;BME280;7697;51.630;7.484;2023-03-15T12:54:48;101086.16;;;14.64;49.08
15193;BME280;7697;51.630;7.484;2023-03-15T12:59:54;101078.41;;;14.56;48.41
15193;BME280;7697;51.630;7.484;2023-03-15T13:05:14;101086.22;;;14.57;46.78
15193;BME280;7697;51.630;7.484;2023-03-15T13:10:50;101089.31;;;14.86;47.12
15193;BME280;7697;51.630;7.484;2023-03-15T13:16:04;101075.94;;;14.92;46.75
15193;BME280;7697;51.630;7.484;2023-03-15T13:21:18;101088.47;;;14.54;41.99
15193;BME280;7697;51.630;7.484;2023-03-15T13:26:34;101085.34;;;14.12;43.80
15193;BME280;7697;51.630;7.484;2023-03-15T13:31:39;101091.53;;;14.51;46.77
15193;BME280;7697;51.630;7.484;2023-03-15T13:36:44;101088.94;;;14.82;43.14
15193;BME280;7697;51.630;7.484;2023-03-15T13:41:47;101090.31;;;14.53;41.13
15193;BME280;7697;51.630;7.484;2023-03-15T13:46:50;101097.06;;;13.85;42.97
15193;BME280;7697;51.630;7.484;2023-03-15T13:51:53;101103.63;;;13.43;44.93
15193;BME280;7697;51.630;7.484;2023-03-15T13:56:59;101099.88;;;12.85;42.18
15193;BME280;7697;51.630;7.484;2023-03-15T14:02:03;101087.47;;;12.44;42.79
15193;BME280;7697;51.630;7.484;2023-03-15T14:07:23;101094.47;;;12.11;45.67
15193;BME280;7697;51.630;7.484;2023-03-15T14:12:29;101107.22;;;11.87;46.07
15193;BME280;7697;51.630;7.484;2023-03-15T14:17:31;101101.75;;;11.74;47.54
15193;BME280;7697;51.630;7.484;2023-03-15T14:22:33;101111.56;;;11.74;48.05
15193;BME280;7697;51.630;7.484;2023-03-15T14:27:37;101115.50;;;11.56;49.40
15193;BME280;7697;51.630;7.484;2023-03-15T14:32:50;101101.16;;;11.44;49.33
15193;BME280;7697;51.630;7.484;2023-03-15T14:38:00;101121.16;;;11.47;50.34
15193;BME280;7697;51.630;7.484;2023-03-15T14:43:05;101121.69;;;11.14;48.53
15193;BME280;7697;51.630;7.484;2023-03-15T14:48:11;101127.59;;;10.95;49.02
15193;BME280;7697;51.630;7.484;2023-03-15T14:53:16;101129.19;;;10.89;49.93
15193;BME280;7697;51.630;7.484;2023-03-15T14:58:21;101124.00;;;10.81;49.90
15193;BME280;7697;51.630;7.484;2023-03-15T15:03:28;101140.00;;;11.09;48.15
15193;BME280;7697;51.630;7.484;2023-03-15T15:08:32;101126.78;;;10.95;47.79
15193;BME280;7697;51.630;7.484;2023-03-15T15:13:39;101137.59;;;10.78;46.24
15193;BME280;7697;51.630;7.484;2023-03-15T15:18:41;101148.44;;;10.62;47.34
15193;BME280;7697;51.630;7.484;2023-03-15T15:23:43;101156.44;;;10.69;45.45
15193;BME280;7697;51.630;7.484;2023-03-15T15:28:47;101131.13;;;10.66;46.35
15193;BME280;7697;51.630;7.484;2023-03-15T15:33:50;101137.78;;;10.77;44.34
15193;BME280;7697;51.630;7.484;2023-03-15T15:38:53;101125.94;;;10.58;44.48
15193;BME280;7697;51.630;7.484;2023-03-15T15:43:56;101134.91;;;10.57;45.07
15193;BME280;7697;51.630;7.484;2023-03-15T15:48:58;101142.03;;;10.57;45.12
15193;BME280;7697;51.630;7.484;2023-03-15T15:54:00;101132.94;;;10.44;44.57
15193;BME280;7697;51.630;7.484;2023-03-15T15:59:04;101139.47;;;10.48;46.08
15193;BME280;7697;51.630;7.484;2023-03-15T16:04:06;101133.28;;;10.41;45.29
15193;BME280;7697;51.630;7.484;2023-03-15T16:09:11;101126.44;;;10.32;45.78
15193;BME280;7697;51.630;7.484;2023-03-15T16:14:15;101127.19;;;10.26;45.69
15193;BME280;7697;51.630;7.484;2023-03-15T16:19:17;101127.78;;;10.13;45.33
15193;BME280;7697;51.630;7.484;2023-03-15T16:24:21;101141.78;;;10.22;46.41
15193;BME280;7697;51.630;7.484;2023-03-15T16:29:34;101140.97;;;10.22;48.16
15193;BME280;7697;51.630;7.484;2023-03-15T16:34:37;101152.75;;;10.19;48.65
15193;BME280;7697;51.630;7.484;2023-03-15T16:39:39;101140.84;;;10.00;47.43
15193;BME280;7697;51.630;7.484;2023-03-15T16:44:44;101133.53;;;9.88;48.09
15193;BME280;7697;51.630;7.484;2023-03-15T16:49:46;101154.59;;;9.81;48.83
15193;BME280;7697;51.630;7.484;2023-03-15T16:54:48;101147.44;;;9.67;49.85
15193;BME280;7697;51.630;7.484;2023-03-15T16:59:51;101157.66;;;9.70;50.47
15193;BME280;7697;51.630;7.484;2023-03-15T17:04:53;101165.31;;;9.65;51.46
15193;BME280;7697;51.630;7.484;2023-03-15T17:09:55;101173.66;;;9.54;52.97
15193;BME280;7697;51.630;7.484;2023-03-15T17:14:58;101151.81;;;9.37;53.50
15193;BME280;7697;51.630;7.484;2023-03-15T17:20:01;101178.59;;;9.34;56.16
15193;BME280;7697;51.630;7.484;2023-03-15T17:25:06;101163.19;;;9.15;56.68
15193;BME280;7697;51.630;7.484;2023-03-15T17:30:16;101172.53;;;9.02;57.24
15193;BME280;7697;51.630;7.484;2023-03-15T17:35:19;101175.25;;;8.86;59.50
15193;BME280;7697;51.630;7.484;2023-03-15T17:40:23;101165.81;;;8.61;60.43
15193;BME280;7697;51.630;7.484;2023-03-15T17:45:28;101176.75;;;8.50;61.24
15193;BME280;7697;51.630;7.484;2023-03-15T17:50:32;101180.09;;;8.27;62.09
15193;BME280;7697;51.630;7.484;2023-03-15T17:55:34;101194.00;;;8.13;62.57
15193;BME280;7697;51.630;7.484;2023-03-15T18:00:38;101178.84;;;7.91;63.56
15193;BME280;7697;51.630;7.484;2023-03-15T18:05:41;101196.66;;;7.81;63.27
15193;BME280;7697;51.630;7.484;2023-03-15T18:10:44;101199.13;;;7.66;63.41
15193;BME280;7697;51.630;7.484;2023-03-15T18:15:48;101194.19;;;7.55;63.97
15193;BME280;7697;51.630;7.484;2023-03-15T18:20:50;101207.84;;;7.42;64.26
15193;BME280;7697;51.630;7.484;2023-03-15T18:25:52;101211.63;;;7.32;64.92
15193;BME280;7697;51.630;7.484;2023-03-15T18:30:55;101199.56;;;7.13;65.50
15193;BME280;7697;51.630;7.484;2023-03-15T18:35:57;101202.13;;;6.89;65.39
15193;BME280;7697;51.630;7.484;2023-03-15T18:40:58;101212.47;;;6.82;66.72
15193;BME280;7697;51.630;7.484;2023-03-15T18:46:02;101210.63;;;6.74;66.70
15193;BME280;7697;51.630;7.484;2023-03-15T18:51:03;101211.38;;;6.59;66.14
15193;BME280;7697;51.630;7.484;2023-03-15T18:56:06;101203.91;;;6.46;66.68
15193;BME280;7697;51.630;7.484;2023-03-15T19:01:10;101221.13;;;6.32;66.88
15193;BME280;7697;51.630;7.484;2023-03-15T19:06:12;101237.19;;;6.29;66.98
15193;BME280;7697;51.630;7.484;2023-03-15T19:11:14;101246.16;;;6.19;68.25
15193;BME280;7697;51.630;7.484;2023-03-15T19:16:18;101242.97;;;6.07;67.77
15193;BME280;7697;51.630;7.484;2023-03-15T19:21:20;101225.69;;;5.87;68.11
15193;BME280;7697;51.630;7.484;2023-03-15T19:26:22;101243.56;;;5.83;68.74
15193;BME280;7697;51.630;7.484;2023-03-15T19:31:25;101240.81;;;5.67;69.11
15193;BME280;7697;51.630;7.484;2023-03-15T19:36:28;101247.34;;;5.63;69.21
15193;BME280;7697;51.630;7.484;2023-03-15T19:41:30;101225.78;;;5.42;69.38
15193;BME280;7697;51.630;7.484;2023-03-15T19:46:33;101244.19;;;5.42;68.83
15193;BME280;7697;51.630;7.484;2023-03-15T19:51:35;101241.91;;;5.29;69.55
15193;BME280;7697;51.630;7.484;2023-03-15T19:56:37;101246.94;;;5.22;70.53
15193;BME280;7697;51.630;7.484;2023-03-15T20:01:40;101253.88;;;5.14;71.09
15193;BME280;7697;51.630;7.484;2023-03-15T20:06:42;101243.44;;;5.04;70.86
15193;BME280;7697;51.630;7.484;2023-03-15T20:11:44;101266.78;;;5.07;71.32
15193;BME280;7697;51.630;7.484;2023-03-15T20:16:47;101267.25;;;4.93;70.63
15193;BME280;7697;51.630;7.484;2023-03-15T20:21:50;101260.94;;;4.86;70.17
15193;BME280;7697;51.630;7.484;2023-03-15T20:26:51;101274.75;;;4.88;70.12
15193;BME280;7697;51.630;7.484;2023-03-15T20:31:55;101265.91;;;4.89;70.90
15193;BME280;7697;51.630;7.484;2023-03-15T20:36:56;101281.09;;;4.85;70.52
15193;BME280;7697;51.630;7.484;2023-03-15T20:41:58;101266.66;;;4.72;71.30
15193;BME280;7697;51.630;7.484;2023-03-15T20:47:01;101276.31;;;4.81;71.09
15193;BME280;7697;51.630;7.484;2023-03-15T20:52:03;101277.53;;;4.77;70.99
15193;BME280;7697;51.630;7.484;2023-03-15T20:57:05;101273.16;;;4.68;70.87
15193;BME280;7697;51.630;7.484;2023-03-15T21:02:09;101269.84;;;4.66;71.03
15193;BME280;7697;51.630;7.484;2023-03-15T21:07:11;101268.50;;;4.62;71.43
15193;BME280;7697;51.630;7.484;2023-03-15T21:12:13;101257.19;;;4.61;71.54
15193;BME280;7697;51.630;7.484;2023-03-15T21:17:16;101261.88;;;4.58;71.10
15193;BME280;7697;51.630;7.484;2023-03-15T21:22:18;101261.34;;;4.54;71.34
15193;BME280;7697;51.630;7.484;2023-03-15T21:27:20;101263.28;;;4.52;71.54
15193;BME280;7697;51.630;7.484;2023-03-15T21:32:26;101251.72;;;4.45;71.46
15193;BME280;7697;51.630;7.484;2023-03-15T21:37:28;101244.69;;;4.45;71.94
15193;BME280;7697;51.630;7.484;2023-03-15T21:42:31;101244.00;;;4.43;72.28
15193;BME280;7697;51.630;7.484;2023-03-15T21:47:34;101251.41;;;4.48;72.67
15193;BME280;7697;51.630;7.484;2023-03-15T21:52:36;101256.41;;;4.41;73.71
15193;BME280;7697;51.630;7.484;2023-03-15T21:57:37;101234.09;;;4.28;73.16
15193;BME280;7697;51.630;7.484;2023-03-15T22:02:41;101246.25;;;4.29;72.89
15193;BME280;7697;51.630;7.484;2023-03-15T22:07:43;101244.47;;;4.29;72.80
15193;BME280;7697;51.630;7.484;2023-03-15T22:12:44;101245.41;;;4.28;72.86
15193;BME280;7697;51.630;7.484;2023-03-15T22:17:48;101253.81;;;4.32;72.99
15193;BME280;7697;51.630;7.484;2023-03-15T22:22:50;101231.09;;;4.13;73.31
15193;BME280;7697;51.630;7.484;2023-03-15T22:27:52;101250.00;;;4.17;73.59
15193;BME280;7697;51.630;7.484;2023-03-15T22:32:55;101225.34;;;4.00;73.67
15193;BME280;7697;51.630;7.484;2023-03-15T22:37:58;101227.13;;;3.99;73.97
15193;BME280;7697;51.630;7.484;2023-03-15T22:43:00;101222.03;;;3.98;74.27
15193;BME280;7697;51.630;7.484;2023-03-15T22:48:03;101223.13;;;3.95;74.88
15193;BME280;7697;51.630;7.484;2023-03-15T22:53:05;101215.97;;;3.88;74.91
15193;BME280;7697;51.630;7.484;2023-03-15T22:58:07;101206.88;;;3.82;74.69
15193;BME280;7697;51.630;7.484;2023-03-15T23:03:10;101205.22;;;3.81;74.65
15193;BME280;7697;51.630;7.484;2023-03-15T23:08:12;101222.88;;;3.89;75.59
15193;BME280;7697;51.630;7.484;2023-03-15T23:13:13;101208.41;;;3.75;76.13
15193;BME280;7697;51.630;7.484;2023-03-15T23:18:16;101211.88;;;3.66;75.74
15193;BME280;7697;51.630;7.484;2023-03-15T23:23:18;101226.06;;;3.63;76.01
15193;BME280;7697;51.630;7.484;2023-03-15T23:28:20;101220.38;;;3.58;76.55
15193;BME280;7697;51.630;7.484;2023-03-15T23:33:25;101227.00;;;3.53;76.41
15193;BME280;7697;51.630;7.484;2023-03-15T23:38:26;101221.91;;;3.51;76.49
15193;BME280;7697;51.630;7.484;2023-03-15T23:43:28;101211.31;;;3.43;76.61
15193;BME280;7697;51.630;7.484;2023-03-15T23:48:31;101203.72;;;3.30;76.53
15193;BME280;7697;51.630;7.484;2023-03-15T23:53:35;101215.56;;;3.25;77.57
15193;BME280;7697;51.630;7.484;2023-03-15T23:58:37;101207.16;;;3.12;77.95
